createdAt,value
2022-11-15T00:01:09.338Z,76960.13
2022-11-15T00:03:37.194Z,76968.59
2022-11-15T00:06:06.785Z,76964.38
2022-11-15T00:08:35.160Z,76972.84
2022-11-15T00:11:04.047Z,76964.38
2022-11-15T00:13:32.748Z,76964.38
2022-11-15T00:16:01.428Z,76964.38
2022-11-15T00:18:29.701Z,76968.59
2022-11-15T00:20:57.602Z,76970.72
2022-11-15T00:23:27.270Z,76968.59
2022-11-15T00:25:58.987Z,76962.25
2022-11-15T00:28:26.725Z,76958.03
2022-11-15T00:30:54.703Z,76947.44
2022-11-15T00:33:22.467Z,76943.19
2022-11-15T00:35:50.276Z,76953.78
2022-11-15T00:38:18.002Z,76943.19
2022-11-15T00:40:47.099Z,76934.72
2022-11-15T00:43:14.847Z,76941.09
2022-11-15T00:45:42.750Z,76941.09
2022-11-15T00:48:10.779Z,76945.31
2022-11-15T00:50:38.700Z,76938.97
2022-11-15T00:53:06.436Z,76941.09
2022-11-15T00:55:34.249Z,76932.63
2022-11-15T00:58:03.364Z,76928.38
2022-11-15T01:00:31.462Z,76934.72
2022-11-15T01:02:59.510Z,76941.09
2022-11-15T01:05:27.391Z,76930.50
2022-11-15T01:07:55.752Z,76943.19
2022-11-15T01:10:23.857Z,76938.97
2022-11-15T01:12:52.163Z,76930.50
2022-11-15T01:15:21.274Z,76922.03
2022-11-15T01:17:49.087Z,76922.03
2022-11-15T01:20:16.838Z,76926.25
2022-11-15T01:22:44.682Z,76934.72
2022-11-15T01:25:12.942Z,76934.72
2022-11-15T01:27:40.622Z,76936.84
2022-11-15T01:30:10.301Z,76945.31
2022-11-15T01:32:39.539Z,76928.38
2022-11-15T01:35:07.780Z,76922.03
2022-11-15T01:37:35.985Z,76917.78
2022-11-15T01:40:04.519Z,76905.09
2022-11-15T01:42:32.399Z,76905.09
2022-11-15T01:45:00.275Z,76909.34
2022-11-15T01:47:30.698Z,76922.03
2022-11-15T01:50:01.868Z,76905.09
2022-11-15T01:52:31.274Z,76909.34
2022-11-15T01:55:03.840Z,76907.22
2022-11-15T01:57:31.964Z,76890.28
2022-11-15T02:00:00.029Z,76896.63
2022-11-15T02:02:27.776Z,76886.03
2022-11-15T02:04:55.428Z,76892.41
2022-11-15T02:07:25.069Z,76896.63
2022-11-15T02:09:53.347Z,76883.94
2022-11-15T02:12:23.314Z,76881.81
2022-11-15T02:14:54.449Z,76883.94
2022-11-15T02:17:33.287Z,76879.69
2022-11-15T02:20:23.025Z,76881.81
2022-11-15T02:23:06.707Z,76879.69
2022-11-15T02:25:41.051Z,76875.47
2022-11-15T02:28:29.166Z,76867.00
2022-11-15T02:31:03.114Z,76862.75
2022-11-15T02:33:37.623Z,76860.63
2022-11-15T02:36:08.881Z,76867.00
2022-11-15T02:38:42.659Z,76871.22
2022-11-15T02:41:13.612Z,76877.56
2022-11-15T02:44:04.310Z,76879.69
2022-11-15T02:46:55.899Z,76883.94
2022-11-15T02:49:23.838Z,76883.94
2022-11-15T02:51:52.602Z,76896.63
2022-11-15T02:54:23.567Z,76879.69
2022-11-15T02:56:52.326Z,76873.34
2022-11-15T02:59:37.437Z,76862.75
2022-11-15T03:02:17.042Z,76873.34
2022-11-15T03:04:47.156Z,76871.22
2022-11-15T03:07:20.727Z,76871.22
2022-11-15T03:09:54.440Z,76877.56
2022-11-15T03:12:27.846Z,76886.03
2022-11-15T03:14:59.131Z,76883.94
2022-11-15T03:17:30.747Z,76898.75
2022-11-15T03:20:00.427Z,76892.41
2022-11-15T03:22:30.938Z,76888.16
2022-11-15T03:25:01.325Z,76892.41
2022-11-15T03:28:19.121Z,76890.28
2022-11-15T03:30:48.389Z,76905.09
2022-11-15T03:33:18.646Z,76905.09
2022-11-15T03:35:47.399Z,76892.41
2022-11-15T03:38:18.943Z,76888.16
2022-11-15T03:40:50.146Z,76881.81
2022-11-15T03:43:26.267Z,76879.69
2022-11-15T03:45:58.291Z,76875.47
2022-11-15T03:48:29.619Z,76871.22
2022-11-15T03:50:57.796Z,76864.88
2022-11-15T03:53:25.571Z,76867.00
2022-11-15T03:55:53.461Z,76858.53
2022-11-15T03:58:21.259Z,76845.81
2022-11-15T04:00:49.155Z,76850.06
2022-11-15T04:03:17.189Z,76854.28
2022-11-15T04:06:15.658Z,76841.59
2022-11-15T04:09:24.394Z,76835.25
2022-11-15T04:11:52.575Z,76831.00
2022-11-15T04:14:20.267Z,76841.59
2022-11-15T04:16:48.198Z,76847.94
2022-11-15T04:20:16.543Z,76858.53
2022-11-15T04:23:03.399Z,76858.53
2022-11-15T04:25:32.572Z,76839.47
2022-11-15T04:28:00.552Z,76841.59
2022-11-15T04:30:28.242Z,76852.16
2022-11-15T04:32:56.219Z,76847.94
2022-11-15T04:35:24.084Z,76854.28
2022-11-15T04:38:01.135Z,76860.63
2022-11-15T04:40:28.802Z,76850.06
2022-11-15T04:43:03.287Z,76862.75
2022-11-15T04:45:31.857Z,76858.53
2022-11-15T04:47:59.549Z,76862.75
2022-11-15T04:50:27.256Z,76847.94
2022-11-15T04:52:56.152Z,76850.06
2022-11-15T04:55:25.371Z,76847.94
2022-11-15T04:58:00.941Z,76854.28
2022-11-15T05:00:30.265Z,76854.28
2022-11-15T05:03:15.620Z,76843.69
2022-11-15T05:05:43.680Z,76854.28
2022-11-15T05:08:11.466Z,76854.28
2022-11-15T05:10:40.866Z,76850.06
2022-11-15T05:13:08.618Z,76858.53
2022-11-15T05:15:36.366Z,76843.69
2022-11-15T05:18:04.243Z,76845.81
2022-11-15T05:20:31.899Z,76841.59
2022-11-15T05:22:59.774Z,76860.63
2022-11-15T05:25:28.088Z,76858.53
2022-11-15T05:27:57.140Z,76860.63
2022-11-15T05:30:24.881Z,76856.41
2022-11-15T05:32:52.875Z,76858.53
2022-11-15T05:35:24.158Z,76862.75
2022-11-15T05:37:51.797Z,76854.28
2022-11-15T05:40:19.663Z,76852.16
2022-11-15T05:42:48.203Z,76856.41
2022-11-15T05:45:21.268Z,76862.75
2022-11-15T05:47:51.966Z,76854.28
2022-11-15T05:50:20.582Z,76867.00
2022-11-15T05:52:48.638Z,76871.22
2022-11-15T05:55:16.707Z,76871.22
2022-11-15T05:57:44.592Z,76871.22
2022-11-15T06:00:13.518Z,76869.09
2022-11-15T06:02:43.492Z,76864.88
2022-11-15T06:05:11.430Z,76869.09
2022-11-15T06:07:39.330Z,76867.00
2022-11-15T06:10:09.554Z,76871.22
2022-11-15T06:12:38.476Z,76871.22
2022-11-15T06:15:09.846Z,76886.03
2022-11-15T06:17:37.667Z,76883.94
2022-11-15T06:20:07.798Z,76896.63
2022-11-15T06:22:35.522Z,76892.41
2022-11-15T06:25:05.583Z,76881.81
2022-11-15T06:27:33.634Z,76873.34
2022-11-15T06:30:01.378Z,76867.00
2022-11-15T06:32:30.739Z,76877.56
2022-11-15T06:34:58.729Z,76881.81
2022-11-15T06:37:27.797Z,76886.03
2022-11-15T06:39:55.630Z,76890.28
2022-11-15T06:42:23.649Z,76896.63
2022-11-15T06:44:51.574Z,76881.81
2022-11-15T06:47:19.487Z,76867.00
2022-11-15T06:49:47.238Z,76864.88
2022-11-15T06:52:15.161Z,76871.22
2022-11-15T06:54:44.237Z,76858.53
2022-11-15T06:57:11.904Z,76871.22
2022-11-15T06:59:40.745Z,76860.63
2022-11-15T07:02:12.633Z,76841.59
2022-11-15T07:04:40.318Z,76816.19
2022-11-15T07:07:08.201Z,76835.25
2022-11-15T07:09:36.160Z,76814.06
2022-11-15T07:12:07.899Z,76759.03
2022-11-15T07:14:35.934Z,76710.34
2022-11-15T07:17:05.787Z,76695.53
2022-11-15T07:19:33.712Z,76648.94
2022-11-15T07:22:01.366Z,76604.50
2022-11-15T07:24:28.991Z,76570.63
2022-11-15T07:26:56.854Z,76460.56
2022-11-15T07:29:26.083Z,76267.94
2022-11-15T07:31:54.183Z,76204.44
2022-11-15T07:34:21.829Z,76246.78
2022-11-15T07:36:49.564Z,76140.94
2022-11-15T07:39:17.242Z,76092.25
2022-11-15T07:41:45.684Z,76121.91
2022-11-15T07:44:13.545Z,75990.66
2022-11-15T07:46:43.358Z,75903.91
2022-11-15T07:49:11.262Z,75922.94
2022-11-15T07:51:39.515Z,76011.84
2022-11-15T07:54:07.379Z,75963.16
2022-11-15T07:56:35.262Z,75910.25
2022-11-15T07:59:03.073Z,75870.03
2022-11-15T08:01:31.001Z,75800.19
2022-11-15T08:04:00.325Z,75622.41
2022-11-15T08:06:28.159Z,75503.91
2022-11-15T08:08:55.843Z,75482.75
2022-11-15T08:11:23.812Z,75506.03
2022-11-15T08:13:51.590Z,75480.63
2022-11-15T08:16:19.626Z,75421.38
2022-11-15T08:18:47.612Z,75252.09
2022-11-15T08:21:21.155Z,75165.31
2022-11-15T08:23:49.509Z,75144.16
2022-11-15T08:26:18.419Z,75063.75
2022-11-15T08:28:46.893Z,74964.31
2022-11-15T08:31:17.805Z,74905.06
2022-11-15T08:33:46.762Z,74852.16
2022-11-15T08:36:19.736Z,74826.78
2022-11-15T08:38:47.941Z,74761.19
2022-11-15T08:41:27.919Z,74699.81
2022-11-15T08:43:55.957Z,74642.69
2022-11-15T08:46:23.769Z,74712.50
2022-11-15T08:48:51.566Z,74661.72
2022-11-15T08:51:20.871Z,74610.97
2022-11-15T08:53:48.975Z,74608.84
2022-11-15T08:56:17.131Z,74634.22
2022-11-15T08:58:44.865Z,74627.88
2022-11-15T09:01:18.997Z,74744.25
2022-11-15T09:03:46.800Z,74746.38
2022-11-15T09:06:14.899Z,74835.22
2022-11-15T09:08:48.352Z,74991.81
2022-11-15T09:11:17.662Z,75067.97
2022-11-15T09:13:45.531Z,74996.03
2022-11-15T09:16:13.948Z,74974.88
2022-11-15T09:18:41.847Z,74873.31
2022-11-15T09:21:10.238Z,74902.94
2022-11-15T09:23:38.164Z,75042.59
2022-11-15T09:26:07.895Z,75067.97
2022-11-15T09:28:36.491Z,75040.47
2022-11-15T09:31:06.047Z,74970.66
2022-11-15T09:33:34.141Z,74991.81
2022-11-15T09:36:07.715Z,75059.53
2022-11-15T09:38:39.546Z,74981.22
2022-11-15T09:41:39.982Z,74987.56
2022-11-15T09:44:25.981Z,74890.25
2022-11-15T09:46:59.308Z,74860.63
2022-11-15T09:49:27.526Z,74805.63
2022-11-15T09:51:56.245Z,74729.44
2022-11-15T09:54:52.322Z,74822.53
2022-11-15T09:57:21.781Z,74860.63
2022-11-15T10:00:23.782Z,74718.88
2022-11-15T10:03:12.820Z,74649.03
2022-11-15T10:05:42.469Z,74649.03
2022-11-15T10:08:28.984Z,74740.03
2022-11-15T10:11:22.576Z,74818.31
2022-11-15T10:13:50.450Z,74746.38
2022-11-15T10:16:51.516Z,74589.81
2022-11-15T10:19:30.155Z,74479.78
2022-11-15T10:22:17.513Z,74412.09
2022-11-15T10:24:47.064Z,74333.81
2022-11-15T10:27:23.889Z,74314.75
2022-11-15T10:29:52.955Z,74247.06
2022-11-15T10:32:22.205Z,74183.59
2022-11-15T10:34:50.907Z,74139.16
2022-11-15T10:37:40.512Z,74054.56
2022-11-15T10:40:18.311Z,73976.28
2022-11-15T10:42:45.961Z,74274.56
2022-11-15T10:45:30.240Z,74139.16
2022-11-15T10:48:23.615Z,74065.13
2022-11-15T10:50:52.248Z,74177.25
2022-11-15T10:53:24.163Z,74008.00
2022-11-15T10:55:54.304Z,73950.91
2022-11-15T10:58:25.356Z,74043.97
2022-11-15T11:00:55.697Z,74096.84
2022-11-15T11:03:30.700Z,74200.53
2022-11-15T11:06:10.931Z,74156.09
2022-11-15T11:08:38.918Z,74242.84
2022-11-15T11:11:08.025Z,74314.75
2022-11-15T11:13:37.081Z,74462.84
2022-11-15T11:16:28.597Z,74445.94
2022-11-15T11:19:04.431Z,74416.31
2022-11-15T11:21:43.740Z,74668.09
2022-11-15T11:24:17.243Z,74720.97
2022-11-15T11:26:58.645Z,74640.56
2022-11-15T11:29:35.018Z,74566.53
2022-11-15T11:32:08.038Z,74532.69
2022-11-15T11:34:46.640Z,74458.63
2022-11-15T11:37:19.928Z,74412.09
2022-11-15T11:39:56.341Z,74481.91
2022-11-15T11:42:29.265Z,74547.47
2022-11-15T11:45:12.171Z,74500.94
2022-11-15T11:47:43.003Z,74452.28
2022-11-15T11:50:15.665Z,74509.41
2022-11-15T11:52:45.967Z,74543.25
2022-11-15T11:55:21.404Z,74545.38
2022-11-15T11:57:53.067Z,74619.41
2022-11-15T12:00:21.535Z,74672.31
2022-11-15T12:02:59.004Z,74729.44
2022-11-15T12:05:32.667Z,74822.53
2022-11-15T12:08:06.735Z,74786.56
2022-11-15T12:10:35.861Z,74799.25
2022-11-15T12:13:06.996Z,74822.53
2022-11-15T12:15:38.621Z,74720.97
2022-11-15T12:18:11.344Z,74706.16
2022-11-15T12:20:44.835Z,74746.38
2022-11-15T12:23:17.460Z,74729.44
2022-11-15T12:25:49.737Z,74674.44
2022-11-15T12:28:22.806Z,74663.84
2022-11-15T12:31:04.298Z,74617.31
2022-11-15T12:33:38.775Z,74615.19
2022-11-15T12:36:10.231Z,74619.41
2022-11-15T12:38:56.694Z,74610.97
2022-11-15T12:41:28.918Z,74553.84
2022-11-15T12:43:57.523Z,74693.47
2022-11-15T12:47:03.608Z,74665.97
2022-11-15T12:49:49.173Z,74665.97
2022-11-15T12:52:17.499Z,74716.75
2022-11-15T12:55:31.627Z,74837.34
2022-11-15T12:58:43.039Z,74814.06
2022-11-15T13:01:11.657Z,74841.59
2022-11-15T13:04:13.133Z,74826.78
2022-11-15T13:06:44.725Z,74936.78
2022-11-15T13:09:49.707Z,74993.94
2022-11-15T13:12:50.895Z,74902.94
2022-11-15T13:15:43.414Z,74877.56
2022-11-15T13:18:41.706Z,74936.78
2022-11-15T13:21:41.719Z,74932.56
2022-11-15T13:24:15.727Z,74913.53
2022-11-15T13:26:43.913Z,74972.78
2022-11-15T13:29:18.371Z,75017.19
2022-11-15T13:31:47.159Z,74993.94
2022-11-15T13:37:31.159Z,75063.75
2022-11-15T13:40:18.176Z,75084.91
2022-11-15T13:42:46.181Z,75078.56
2022-11-15T13:45:17.031Z,75095.50
2022-11-15T13:47:46.368Z,75103.97
2022-11-15T13:50:14.965Z,75125.13
2022-11-15T13:52:45.608Z,75123.00
2022-11-15T13:55:19.343Z,75123.00
2022-11-15T13:58:01.913Z,75169.56
2022-11-15T14:00:40.045Z,75209.75
2022-11-15T14:03:16.323Z,75254.19
2022-11-15T14:05:45.147Z,75277.47
2022-11-15T14:08:24.718Z,75275.34
2022-11-15T14:11:10.074Z,75292.28
2022-11-15T14:13:38.167Z,75290.16
2022-11-15T14:16:16.864Z,75307.09
2022-11-15T14:18:47.769Z,75332.50
2022-11-15T14:21:15.838Z,75336.72
2022-11-15T14:23:44.158Z,75349.44
2022-11-15T14:26:29.204Z,75349.44
2022-11-15T14:28:57.062Z,75349.44
2022-11-15T14:31:25.064Z,75360.00
2022-11-15T14:33:52.983Z,75364.25
2022-11-15T14:36:22.345Z,75381.16
2022-11-15T14:38:50.380Z,75402.31
2022-11-15T14:41:34.604Z,75421.38
2022-11-15T14:44:02.729Z,75436.19
2022-11-15T14:46:30.464Z,75444.66
2022-11-15T14:48:58.328Z,75459.47
2022-11-15T14:51:26.966Z,75467.94
2022-11-15T14:53:56.265Z,75482.75
2022-11-15T14:56:25.711Z,75489.09
2022-11-15T14:59:01.169Z,75495.44
2022-11-15T15:01:29.505Z,75512.38
2022-11-15T15:03:59.322Z,75512.38
2022-11-15T15:06:28.153Z,75518.72
2022-11-15T15:08:56.127Z,75535.66
2022-11-15T15:11:29.412Z,75529.31
2022-11-15T15:14:01.990Z,75533.53
2022-11-15T15:16:29.883Z,75550.47
2022-11-15T15:18:57.644Z,75577.97
2022-11-15T15:21:33.593Z,75592.78
2022-11-15T15:24:03.439Z,75601.25
2022-11-15T15:26:35.006Z,75620.31
2022-11-15T15:29:02.909Z,75630.88
2022-11-15T15:31:32.550Z,75641.47
2022-11-15T15:34:00.336Z,75645.69
2022-11-15T15:36:28.231Z,75656.28
2022-11-15T15:38:57.674Z,75671.09
2022-11-15T15:41:25.685Z,75675.31
2022-11-15T15:43:54.695Z,75685.91
2022-11-15T15:46:23.019Z,75709.19
2022-11-15T15:48:50.886Z,75721.88
2022-11-15T15:51:20.656Z,75736.69
2022-11-15T15:53:48.834Z,75740.94
2022-11-15T15:56:16.550Z,75747.28
2022-11-15T15:58:44.635Z,75751.50
2022-11-15T16:01:14.514Z,75749.41
2022-11-15T16:03:42.487Z,75753.63
2022-11-15T16:06:28.316Z,75757.88
2022-11-15T16:09:14.201Z,75772.69
2022-11-15T16:11:43.714Z,75783.25
2022-11-15T16:14:11.466Z,75817.13
2022-11-15T16:16:40.973Z,75827.69
2022-11-15T16:19:10.425Z,75825.59
2022-11-15T16:21:38.336Z,75836.16
2022-11-15T16:24:06.654Z,75838.28
2022-11-15T16:26:35.467Z,75863.69
2022-11-15T16:29:03.292Z,75874.25
2022-11-15T16:31:31.000Z,75872.16
2022-11-15T16:34:00.418Z,75865.78
2022-11-15T16:36:31.297Z,75895.44
2022-11-15T16:38:59.329Z,75956.81
2022-11-15T16:41:28.229Z,75961.03
2022-11-15T16:43:56.137Z,75982.19
2022-11-15T16:46:25.228Z,75980.09
2022-11-15T16:49:33.213Z,75969.50
2022-11-15T16:52:02.555Z,75961.03
2022-11-15T16:54:30.401Z,75950.44
2022-11-15T16:56:58.132Z,75944.09
2022-11-15T16:59:25.918Z,75950.44
2022-11-15T17:01:53.937Z,75939.88
2022-11-15T17:04:22.702Z,75937.75
2022-11-15T17:06:50.952Z,75950.44
2022-11-15T17:09:24.890Z,75948.34
2022-11-15T17:11:52.878Z,75956.81
2022-11-15T17:14:20.783Z,75961.03
2022-11-15T17:16:48.615Z,75963.16
2022-11-15T17:19:18.317Z,75969.50
2022-11-15T17:21:49.756Z,75977.97
2022-11-15T17:24:17.804Z,75973.75
2022-11-15T17:26:47.319Z,75977.97
2022-11-15T17:29:15.202Z,76007.59
2022-11-15T17:31:42.874Z,76064.75
2022-11-15T17:34:10.643Z,76056.28
2022-11-15T17:36:38.370Z,76045.69
2022-11-15T17:39:06.563Z,76041.47
2022-11-15T17:41:34.467Z,76045.69
2022-11-15T17:44:05.032Z,76043.59
2022-11-15T17:46:33.519Z,76062.63
2022-11-15T17:49:01.700Z,76064.75
2022-11-15T17:51:30.175Z,76062.63
2022-11-15T17:53:58.171Z,76096.50
2022-11-15T17:56:27.591Z,76115.53
2022-11-15T17:58:58.823Z,76109.19
2022-11-15T18:01:29.454Z,76102.84
2022-11-15T18:04:03.023Z,76132.47
2022-11-15T18:06:32.873Z,76157.88
2022-11-15T18:09:01.360Z,76151.53
2022-11-15T18:11:33.107Z,76151.53
2022-11-15T18:14:02.962Z,76147.28
2022-11-15T18:16:33.674Z,76134.59
2022-11-15T18:19:01.923Z,76138.81
2022-11-15T18:21:31.805Z,76162.09
2022-11-15T18:24:00.949Z,76160.00
2022-11-15T18:26:30.680Z,76149.41
2022-11-15T18:29:06.343Z,76149.41
2022-11-15T18:31:35.498Z,76166.34
2022-11-15T18:34:03.625Z,76149.41
2022-11-15T18:36:33.878Z,76164.22
2022-11-15T18:39:06.139Z,76179.03
2022-11-15T18:41:35.751Z,76172.69
2022-11-15T18:44:04.009Z,76168.47
2022-11-15T18:46:33.260Z,76164.22
2022-11-15T18:49:14.341Z,76157.88
2022-11-15T18:51:43.218Z,76153.63
2022-11-15T18:54:13.360Z,76155.75
2022-11-15T18:56:42.178Z,76155.75
2022-11-15T18:59:11.293Z,76155.75
2022-11-15T19:01:44.931Z,76155.75
2022-11-15T19:04:15.889Z,76162.09
2022-11-15T19:06:46.094Z,76164.22
2022-11-15T19:09:16.321Z,76162.09
2022-11-15T19:11:49.691Z,76181.16
2022-11-15T19:14:18.687Z,76227.72
2022-11-15T19:16:51.102Z,76210.78
2022-11-15T19:19:20.694Z,76202.31
2022-11-15T19:21:51.558Z,76195.97
2022-11-15T19:24:22.676Z,76172.69
2022-11-15T19:26:50.745Z,76151.53
2022-11-15T19:29:25.158Z,76138.81
2022-11-15T19:31:53.022Z,76145.19
2022-11-15T19:34:24.305Z,76132.47
2022-11-15T19:36:52.228Z,76130.34
2022-11-15T19:39:20.093Z,76121.91
2022-11-15T19:41:55.052Z,76121.91
2022-11-15T19:44:22.757Z,76121.91
2022-11-15T19:47:46.109Z,76121.91
2022-11-15T19:50:15.513Z,76119.78
2022-11-15T19:52:45.860Z,76121.91
2022-11-15T19:55:15.454Z,76119.78
2022-11-15T19:57:44.033Z,76121.91
2022-11-15T20:00:12.452Z,76121.91
2022-11-15T20:02:41.644Z,76134.59
2022-11-15T20:05:12.989Z,76138.81
2022-11-15T20:07:49.779Z,76145.19
2022-11-15T20:10:20.818Z,76147.28
2022-11-15T20:12:50.926Z,76151.53
2022-11-15T20:15:18.894Z,76136.72
2022-11-15T20:17:46.720Z,76143.06
2022-11-15T20:20:22.204Z,76153.63
2022-11-15T20:23:12.536Z,76147.28
2022-11-15T20:26:01.461Z,76151.53
2022-11-15T20:28:34.808Z,76145.19
2022-11-15T20:31:09.339Z,76155.75
2022-11-15T20:33:49.213Z,76149.41
2022-11-15T20:36:29.809Z,76155.75
2022-11-15T20:39:00.389Z,76151.53
2022-11-15T20:41:51.040Z,76149.41
2022-11-15T20:47:20.112Z,76149.41
2022-11-15T20:49:47.867Z,76145.19
2022-11-15T20:52:18.136Z,76143.06
2022-11-15T20:54:50.395Z,76132.47
2022-11-15T20:57:18.892Z,76121.91
2022-11-15T20:59:46.858Z,76121.91
2022-11-15T21:02:15.737Z,76126.13
2022-11-15T21:04:43.944Z,76117.66
2022-11-15T21:07:11.838Z,76113.44
2022-11-15T21:09:59.075Z,76109.19
2022-11-15T21:12:28.730Z,76102.84
2022-11-15T21:14:56.740Z,76117.66
2022-11-15T21:17:24.499Z,76111.31
2022-11-15T21:19:53.789Z,76115.53
2022-11-15T21:22:22.337Z,76115.53
2022-11-15T21:24:50.317Z,76109.19
2022-11-15T21:27:19.477Z,76109.19
2022-11-15T21:29:49.692Z,76100.72
2022-11-15T21:32:17.759Z,76096.50
2022-11-15T21:34:45.625Z,76096.50
2022-11-15T21:37:13.952Z,76090.16
2022-11-15T21:39:41.950Z,76085.91
2022-11-15T21:42:10.009Z,76092.25
2022-11-15T21:44:37.955Z,76088.03
2022-11-15T21:47:07.214Z,76085.91
2022-11-15T21:49:35.169Z,76096.50
2022-11-15T21:52:02.872Z,76096.50
2022-11-15T21:54:30.553Z,76083.78
2022-11-15T21:56:58.595Z,76083.78
2022-11-15T21:59:26.521Z,76075.31
2022-11-15T22:02:11.829Z,76090.16
2022-11-15T22:07:26.692Z,76088.03
2022-11-15T22:09:54.773Z,76083.78
2022-11-15T22:12:28.446Z,76083.78
2022-11-15T22:14:57.863Z,76079.56
2022-11-15T22:17:45.666Z,76090.16
2022-11-15T22:20:43.979Z,76100.72
2022-11-15T22:23:03.229Z,76102.84
2022-11-15T22:25:31.250Z,76104.97
2022-11-15T22:27:58.900Z,76107.06
2022-11-15T22:30:26.644Z,76092.25
2022-11-15T22:32:54.964Z,76077.44
2022-11-15T22:35:23.981Z,76079.56
2022-11-15T22:37:52.786Z,76085.91
2022-11-15T22:40:20.841Z,76079.56
2022-11-15T22:42:48.601Z,76079.56
2022-11-15T22:45:16.270Z,76079.56
2022-11-15T22:47:44.129Z,76079.56
2022-11-15T22:50:11.963Z,76081.69
2022-11-15T22:52:41.027Z,76071.09
2022-11-15T22:55:10.435Z,76066.88
2022-11-15T22:57:39.294Z,76077.44
2022-11-15T23:00:09.601Z,76075.31
2022-11-15T23:02:37.639Z,76077.44
2022-11-15T23:05:06.335Z,76066.88
2022-11-15T23:07:34.604Z,76058.41
2022-11-15T23:10:17.565Z,76058.41
2022-11-15T23:13:02.684Z,76045.69
2022-11-15T23:15:50.583Z,76043.59
2022-11-15T23:18:18.215Z,76041.47
2022-11-15T23:20:46.219Z,76049.94
2022-11-15T23:23:12.965Z,76045.69
2022-11-15T23:25:41.841Z,76054.16
2022-11-15T23:28:09.595Z,76043.59
2022-11-15T23:30:55.227Z,76041.47
2022-11-15T23:33:43.725Z,76033.00
2022-11-15T23:36:12.134Z,76035.13
2022-11-15T23:38:40.382Z,76033.00
2022-11-15T23:41:09.306Z,76022.41
2022-11-15T23:43:37.145Z,76020.31
2022-11-15T23:46:05.099Z,76030.88
2022-11-15T23:48:32.883Z,76028.75
2022-11-15T23:51:00.948Z,76026.66
2022-11-15T23:53:28.690Z,76030.88
2022-11-15T23:55:57.426Z,76037.22
2022-11-15T23:58:26.463Z,76024.53
